sensor_id;sensor_type;location;lat;lon;timestamp;P1;durP1;ratioP1;P2;durP2;ratioP2
19705;SDS011;10003;52.506;4.700;2022-08-21T00:00:05;4.83;;;2.40;;
19705;SDS011;10003;52.506;4.700;2022-08-21T00:02:43;7.57;;;3.17;;
19705;SDS011;10003;52.506;4.700;2022-08-21T00:05:11;5.80;;;2.93;;
19705;SDS011;10003;52.506;4.700;2022-08-21T00:07:40;5.97;;;3.33;;
19705;SDS011;10003;52.506;4.700;2022-08-21T00:10:09;1.40;;;1.17;;
19705;SDS011;10003;52.506;4.700;2022-08-21T00:12:38;2.23;;;1.83;;
19705;SDS011;10003;52.506;4.700;2022-08-21T00:15:08;4.07;;;1.90;;
19705;SDS011;10003;52.506;4.700;2022-08-21T00:17:38;8.53;;;4.07;;
19705;SDS011;10003;52.506;4.700;2022-08-21T00:20:08;8.47;;;3.53;;
19705;SDS011;10003;52.506;4.700;2022-08-21T00:22:36;13.20;;;4.00;;
19705;SDS011;10003;52.506;4.700;2022-08-21T00:25:05;6.13;;;3.20;;
19705;SDS011;10003;52.506;4.700;2022-08-21T00:27:34;8.57;;;5.03;;
19705;SDS011;10003;52.506;4.700;2022-08-21T00:30:03;8.50;;;4.80;;
19705;SDS011;10003;52.506;4.700;2022-08-21T00:32:32;2.47;;;2.07;;
19705;SDS011;10003;52.506;4.700;2022-08-21T00:35:02;9.93;;;4.30;;
19705;SDS011;10003;52.506;4.700;2022-08-21T00:37:31;9.50;;;2.23;;
19705;SDS011;10003;52.506;4.700;2022-08-21T00:40:00;8.63;;;5.60;;
19705;SDS011;10003;52.506;4.700;2022-08-21T00:42:29;8.97;;;4.70;;
19705;SDS011;10003;52.506;4.700;2022-08-21T00:44:57;7.70;;;4.87;;
19705;SDS011;10003;52.506;4.700;2022-08-21T00:47:26;8.40;;;4.53;;
19705;SDS011;10003;52.506;4.700;2022-08-21T00:49:54;9.90;;;4.33;;
19705;SDS011;10003;52.506;4.700;2022-08-21T00:52:26;8.97;;;5.03;;
19705;SDS011;10003;52.506;4.700;2022-08-21T00:54:55;13.90;;;4.63;;
19705;SDS011;10003;52.506;4.700;2022-08-21T00:57:27;9.00;;;4.30;;
19705;SDS011;10003;52.506;4.700;2022-08-21T00:59:58;7.37;;;4.03;;
19705;SDS011;10003;52.506;4.700;2022-08-21T01:02:27;4.23;;;3.03;;
19705;SDS011;10003;52.506;4.700;2022-08-21T01:04:56;4.67;;;3.70;;
19705;SDS011;10003;52.506;4.700;2022-08-21T01:07:26;9.03;;;3.13;;
19705;SDS011;10003;52.506;4.700;2022-08-21T01:09:54;7.37;;;2.83;;
19705;SDS011;10003;52.506;4.700;2022-08-21T01:12:23;8.57;;;3.20;;
19705;SDS011;10003;52.506;4.700;2022-08-21T01:14:51;7.47;;;3.10;;
19705;SDS011;10003;52.506;4.700;2022-08-21T01:17:20;5.70;;;3.47;;
19705;SDS011;10003;52.506;4.700;2022-08-21T01:19:48;9.23;;;3.40;;
19705;SDS011;10003;52.506;4.700;2022-08-21T01:22:18;7.20;;;3.60;;
19705;SDS011;10003;52.506;4.700;2022-08-21T01:24:47;7.27;;;3.30;;
19705;SDS011;10003;52.506;4.700;2022-08-21T01:27:16;4.53;;;2.50;;
19705;SDS011;10003;52.506;4.700;2022-08-21T01:29:45;2.33;;;1.97;;
19705;SDS011;10003;52.506;4.700;2022-08-21T01:32:15;10.73;;;4.23;;
19705;SDS011;10003;52.506;4.700;2022-08-21T01:34:45;5.53;;;2.90;;
19705;SDS011;10003;52.506;4.700;2022-08-21T01:37:15;7.53;;;3.40;;
19705;SDS011;10003;52.506;4.700;2022-08-21T01:39:45;6.03;;;3.63;;
19705;SDS011;10003;52.506;4.700;2022-08-21T01:42:13;12.97;;;3.83;;
19705;SDS011;10003;52.506;4.700;2022-08-21T01:44:42;4.00;;;2.80;;
19705;SDS011;10003;52.506;4.700;2022-08-21T01:47:11;5.60;;;3.23;;
19705;SDS011;10003;52.506;4.700;2022-08-21T01:49:43;8.60;;;3.00;;
19705;SDS011;10003;52.506;4.700;2022-08-21T01:52:11;5.80;;;3.90;;
19705;SDS011;10003;52.506;4.700;2022-08-21T01:54:41;6.30;;;3.70;;
19705;SDS011;10003;52.506;4.700;2022-08-21T01:57:11;6.70;;;2.13;;
19705;SDS011;10003;52.506;4.700;2022-08-21T01:59:42;9.50;;;2.93;;
19705;SDS011;10003;52.506;4.700;2022-08-21T02:02:10;1.20;;;1.10;;
19705;SDS011;10003;52.506;4.700;2022-08-21T02:04:39;4.00;;;2.47;;
19705;SDS011;10003;52.506;4.700;2022-08-21T02:07:10;6.47;;;3.13;;
19705;SDS011;10003;52.506;4.700;2022-08-21T02:09:38;10.97;;;4.23;;
19705;SDS011;10003;52.506;4.700;2022-08-21T02:12:08;4.83;;;3.63;;
19705;SDS011;10003;52.506;4.700;2022-08-21T02:14:38;7.30;;;3.60;;
19705;SDS011;10003;52.506;4.700;2022-08-21T02:17:06;8.13;;;1.73;;
19705;SDS011;10003;52.506;4.700;2022-08-21T02:19:35;8.00;;;2.67;;
19705;SDS011;10003;52.506;4.700;2022-08-21T02:22:06;8.87;;;4.00;;
19705;SDS011;10003;52.506;4.700;2022-08-21T02:24:35;14.53;;;4.60;;
19705;SDS011;10003;52.506;4.700;2022-08-21T02:27:20;6.50;;;4.10;;
19705;SDS011;10003;52.506;4.700;2022-08-21T02:29:54;6.67;;;3.70;;
19705;SDS011;10003;52.506;4.700;2022-08-21T02:32:23;8.80;;;3.80;;
19705;SDS011;10003;52.506;4.700;2022-08-21T02:34:52;6.77;;;3.27;;
19705;SDS011;10003;52.506;4.700;2022-08-21T02:37:20;12.53;;;4.60;;
19705;SDS011;10003;52.506;4.700;2022-08-21T02:39:49;11.97;;;4.33;;
19705;SDS011;10003;52.506;4.700;2022-08-21T02:42:17;9.03;;;4.23;;
19705;SDS011;10003;52.506;4.700;2022-08-21T02:44:46;6.13;;;3.93;;
19705;SDS011;10003;52.506;4.700;2022-08-21T02:47:15;8.33;;;5.80;;
19705;SDS011;10003;52.506;4.700;2022-08-21T02:49:44;9.00;;;4.73;;
19705;SDS011;10003;52.506;4.700;2022-08-21T02:52:12;12.77;;;6.27;;
19705;SDS011;10003;52.506;4.700;2022-08-21T02:54:41;11.23;;;6.63;;
19705;SDS011;10003;52.506;4.700;2022-08-21T02:57:09;9.30;;;4.43;;
19705;SDS011;10003;52.506;4.700;2022-08-21T02:59:38;8.47;;;5.30;;
19705;SDS011;10003;52.506;4.700;2022-08-21T03:02:07;7.60;;;3.63;;
19705;SDS011;10003;52.506;4.700;2022-08-21T03:04:36;8.73;;;5.40;;
19705;SDS011;10003;52.506;4.700;2022-08-21T03:07:11;7.03;;;4.37;;
19705;SDS011;10003;52.506;4.700;2022-08-21T03:09:39;8.60;;;4.43;;
19705;SDS011;10003;52.506;4.700;2022-08-21T03:12:21;13.50;;;3.93;;
19705;SDS011;10003;52.506;4.700;2022-08-21T03:14:51;20.17;;;5.43;;
19705;SDS011;10003;52.506;4.700;2022-08-21T03:17:20;10.17;;;5.17;;
19705;SDS011;10003;52.506;4.700;2022-08-21T03:19:56;8.80;;;3.90;;
19705;SDS011;10003;52.506;4.700;2022-08-21T03:22:25;10.83;;;4.27;;
19705;SDS011;10003;52.506;4.700;2022-08-21T03:24:56;8.47;;;4.77;;
19705;SDS011;10003;52.506;4.700;2022-08-21T03:27:25;8.23;;;3.50;;
19705;SDS011;10003;52.506;4.700;2022-08-21T03:29:55;4.37;;;2.87;;
19705;SDS011;10003;52.506;4.700;2022-08-21T03:32:23;10.03;;;5.13;;
19705;SDS011;10003;52.506;4.700;2022-08-21T03:34:52;8.27;;;4.07;;
19705;SDS011;10003;52.506;4.700;2022-08-21T03:37:22;7.73;;;4.17;;
19705;SDS011;10003;52.506;4.700;2022-08-21T03:39:50;5.77;;;3.90;;
19705;SDS011;10003;52.506;4.700;2022-08-21T03:42:19;10.20;;;5.10;;
19705;SDS011;10003;52.506;4.700;2022-08-21T03:44:47;13.50;;;3.63;;
19705;SDS011;10003;52.506;4.700;2022-08-21T03:47:16;6.13;;;4.17;;
19705;SDS011;10003;52.506;4.700;2022-08-21T03:49:44;6.80;;;4.03;;
19705;SDS011;10003;52.506;4.700;2022-08-21T03:52:13;11.00;;;5.27;;
19705;SDS011;10003;52.506;4.700;2022-08-21T03:54:43;7.67;;;4.77;;
19705;SDS011;10003;52.506;4.700;2022-08-21T03:57:12;7.47;;;1.97;;
19705;SDS011;10003;52.506;4.700;2022-08-21T03:59:41;8.93;;;4.40;;
19705;SDS011;10003;52.506;4.700;2022-08-21T04:02:10;3.57;;;2.87;;
19705;SDS011;10003;52.506;4.700;2022-08-21T04:04:39;8.63;;;4.07;;
19705;SDS011;10003;52.506;4.700;2022-08-21T04:07:07;8.77;;;4.60;;
19705;SDS011;10003;52.506;4.700;2022-08-21T04:09:35;4.80;;;3.10;;
19705;SDS011;10003;52.506;4.700;2022-08-21T04:12:05;8.00;;;4.17;;
19705;SDS011;10003;52.506;4.700;2022-08-21T04:14:34;7.03;;;3.20;;
19705;SDS011;10003;52.506;4.700;2022-08-21T04:17:02;7.33;;;2.77;;
19705;SDS011;10003;52.506;4.700;2022-08-21T04:19:31;5.70;;;4.37;;
19705;SDS011;10003;52.506;4.700;2022-08-21T04:22:00;4.83;;;2.90;;
19705;SDS011;10003;52.506;4.700;2022-08-21T04:24:28;9.33;;;4.57;;
19705;SDS011;10003;52.506;4.700;2022-08-21T04:26:56;3.57;;;3.10;;
19705;SDS011;10003;52.506;4.700;2022-08-21T04:29:26;7.40;;;3.20;;
19705;SDS011;10003;52.506;4.700;2022-08-21T04:31:55;5.83;;;2.83;;
19705;SDS011;10003;52.506;4.700;2022-08-21T04:34:23;5.90;;;3.43;;
19705;SDS011;10003;52.506;4.700;2022-08-21T04:36:51;3.43;;;2.67;;
19705;SDS011;10003;52.506;4.700;2022-08-21T04:39:20;10.20;;;3.93;;
19705;SDS011;10003;52.506;4.700;2022-08-21T04:41:54;6.33;;;4.00;;
19705;SDS011;10003;52.506;4.700;2022-08-21T04:44:23;7.73;;;3.90;;
19705;SDS011;10003;52.506;4.700;2022-08-21T04:46:53;7.30;;;4.77;;
19705;SDS011;10003;52.506;4.700;2022-08-21T04:49:21;9.63;;;4.40;;
19705;SDS011;10003;52.506;4.700;2022-08-21T04:51:49;15.50;;;6.17;;
19705;SDS011;10003;52.506;4.700;2022-08-21T04:54:19;5.63;;;3.93;;
19705;SDS011;10003;52.506;4.700;2022-08-21T04:56:49;9.03;;;2.03;;
19705;SDS011;10003;52.506;4.700;2022-08-21T04:59:24;9.97;;;3.80;;
19705;SDS011;10003;52.506;4.700;2022-08-21T05:01:55;6.83;;;3.70;;
19705;SDS011;10003;52.506;4.700;2022-08-21T05:04:25;7.80;;;3.43;;
19705;SDS011;10003;52.506;4.700;2022-08-21T05:06:56;8.27;;;4.43;;
19705;SDS011;10003;52.506;4.700;2022-08-21T05:09:26;7.87;;;3.70;;
19705;SDS011;10003;52.506;4.700;2022-08-21T05:11:54;3.87;;;2.57;;
19705;SDS011;10003;52.506;4.700;2022-08-21T05:14:24;8.87;;;3.87;;
19705;SDS011;10003;52.506;4.700;2022-08-21T05:16:53;8.77;;;4.17;;
19705;SDS011;10003;52.506;4.700;2022-08-21T05:19:23;11.20;;;4.13;;
19705;SDS011;10003;52.506;4.700;2022-08-21T05:21:52;10.97;;;4.50;;
19705;SDS011;10003;52.506;4.700;2022-08-21T05:24:20;9.77;;;4.30;;
19705;SDS011;10003;52.506;4.700;2022-08-21T05:26:48;6.43;;;2.87;;
19705;SDS011;10003;52.506;4.700;2022-08-21T05:29:17;8.60;;;4.60;;
19705;SDS011;10003;52.506;4.700;2022-08-21T05:31:46;10.03;;;4.60;;
19705;SDS011;10003;52.506;4.700;2022-08-21T05:34:17;2.77;;;2.10;;
19705;SDS011;10003;52.506;4.700;2022-08-21T05:36:47;8.40;;;4.60;;
19705;SDS011;10003;52.506;4.700;2022-08-21T05:39:15;7.80;;;4.17;;
19705;SDS011;10003;52.506;4.700;2022-08-21T05:41:44;10.03;;;3.67;;
19705;SDS011;10003;52.506;4.700;2022-08-21T05:44:12;37.47;;;4.00;;
19705;SDS011;10003;52.506;4.700;2022-08-21T05:46:40;5.70;;;2.60;;
19705;SDS011;10003;52.506;4.700;2022-08-21T05:49:10;6.27;;;3.53;;
19705;SDS011;10003;52.506;4.700;2022-08-21T05:51:39;17.90;;;4.20;;
19705;SDS011;10003;52.506;4.700;2022-08-21T05:54:09;9.87;;;4.37;;
19705;SDS011;10003;52.506;4.700;2022-08-21T05:56:37;9.97;;;4.53;;
19705;SDS011;10003;52.506;4.700;2022-08-21T05:59:05;9.80;;;3.87;;
19705;SDS011;10003;52.506;4.700;2022-08-21T06:01:34;7.33;;;3.73;;
19705;SDS011;10003;52.506;4.700;2022-08-21T06:04:03;12.57;;;5.33;;
19705;SDS011;10003;52.506;4.700;2022-08-21T06:06:31;13.27;;;4.30;;
19705;SDS011;10003;52.506;4.700;2022-08-21T06:09:00;9.00;;;3.90;;
19705;SDS011;10003;52.506;4.700;2022-08-21T06:11:31;12.43;;;5.00;;
19705;SDS011;10003;52.506;4.700;2022-08-21T06:14:00;8.43;;;4.20;;
19705;SDS011;10003;52.506;4.700;2022-08-21T06:16:28;14.57;;;4.87;;
19705;SDS011;10003;52.506;4.700;2022-08-21T06:18:57;17.20;;;4.53;;
19705;SDS011;10003;52.506;4.700;2022-08-21T06:21:28;8.20;;;4.20;;
19705;SDS011;10003;52.506;4.700;2022-08-21T06:23:57;5.37;;;2.63;;
19705;SDS011;10003;52.506;4.700;2022-08-21T06:26:25;11.70;;;4.10;;
19705;SDS011;10003;52.506;4.700;2022-08-21T06:28:56;11.13;;;4.77;;
19705;SDS011;10003;52.506;4.700;2022-08-21T06:31:26;9.30;;;4.30;;
19705;SDS011;10003;52.506;4.700;2022-08-21T06:33:54;13.27;;;3.17;;
19705;SDS011;10003;52.506;4.700;2022-08-21T06:36:23;17.83;;;6.27;;
19705;SDS011;10003;52.506;4.700;2022-08-21T06:38:52;11.23;;;4.73;;
19705;SDS011;10003;52.506;4.700;2022-08-21T06:41:23;2.60;;;1.73;;
19705;SDS011;10003;52.506;4.700;2022-08-21T06:43:52;10.53;;;4.43;;
19705;SDS011;10003;52.506;4.700;2022-08-21T06:46:23;14.30;;;4.43;;
19705;SDS011;10003;52.506;4.700;2022-08-21T06:48:51;5.73;;;2.97;;
19705;SDS011;10003;52.506;4.700;2022-08-21T06:51:20;5.57;;;3.80;;
19705;SDS011;10003;52.506;4.700;2022-08-21T06:53:48;10.60;;;4.77;;
19705;SDS011;10003;52.506;4.700;2022-08-21T06:56:17;9.13;;;4.70;;
19705;SDS011;10003;52.506;4.700;2022-08-21T06:58:45;8.53;;;3.97;;
19705;SDS011;10003;52.506;4.700;2022-08-21T07:01:13;9.20;;;4.23;;
19705;SDS011;10003;52.506;4.700;2022-08-21T07:03:43;11.90;;;4.10;;
19705;SDS011;10003;52.506;4.700;2022-08-21T07:06:12;6.83;;;3.57;;
19705;SDS011;10003;52.506;4.700;2022-08-21T07:08:40;8.13;;;3.90;;
19705;SDS011;10003;52.506;4.700;2022-08-21T07:11:09;12.63;;;4.33;;
19705;SDS011;10003;52.506;4.700;2022-08-21T07:13:39;6.77;;;4.07;;
19705;SDS011;10003;52.506;4.700;2022-08-21T07:16:07;9.63;;;4.47;;
19705;SDS011;10003;52.506;4.700;2022-08-21T07:18:36;12.03;;;5.80;;
19705;SDS011;10003;52.506;4.700;2022-08-21T07:21:06;8.80;;;4.03;;
19705;SDS011;10003;52.506;4.700;2022-08-21T07:23:36;6.57;;;1.57;;
19705;SDS011;10003;52.506;4.700;2022-08-21T07:26:05;1.03;;;0.97;;
19705;SDS011;10003;52.506;4.700;2022-08-21T07:28:34;5.10;;;2.67;;
19705;SDS011;10003;52.506;4.700;2022-08-21T07:31:03;4.07;;;1.50;;
19705;SDS011;10003;52.506;4.700;2022-08-21T07:33:33;7.73;;;3.33;;
19705;SDS011;10003;52.506;4.700;2022-08-21T07:36:01;8.43;;;2.90;;
19705;SDS011;10003;52.506;4.700;2022-08-21T07:38:32;7.73;;;3.07;;
19705;SDS011;10003;52.506;4.700;2022-08-21T07:41:01;11.93;;;4.40;;
19705;SDS011;10003;52.506;4.700;2022-08-21T07:43:29;10.63;;;3.97;;
19705;SDS011;10003;52.506;4.700;2022-08-21T07:45:58;10.47;;;4.50;;
19705;SDS011;10003;52.506;4.700;2022-08-21T07:48:26;9.77;;;3.43;;
19705;SDS011;10003;52.506;4.700;2022-08-21T07:50:55;1.60;;;1.50;;
19705;SDS011;10003;52.506;4.700;2022-08-21T07:53:23;5.00;;;1.17;;
19705;SDS011;10003;52.506;4.700;2022-08-21T07:55:53;4.50;;;1.57;;
19705;SDS011;10003;52.506;4.700;2022-08-21T07:58:25;2.90;;;1.00;;
19705;SDS011;10003;52.506;4.700;2022-08-21T08:00:53;5.50;;;2.30;;
19705;SDS011;10003;52.506;4.700;2022-08-21T08:03:22;3.17;;;1.30;;
19705;SDS011;10003;52.506;4.700;2022-08-21T08:05:54;8.53;;;2.93;;
19705;SDS011;10003;52.506;4.700;2022-08-21T08:08:23;4.63;;;1.40;;
19705;SDS011;10003;52.506;4.700;2022-08-21T08:10:53;4.23;;;2.63;;
19705;SDS011;10003;52.506;4.700;2022-08-21T08:13:21;4.53;;;2.57;;
19705;SDS011;10003;52.506;4.700;2022-08-21T08:15:50;1.10;;;1.00;;
19705;SDS011;10003;52.506;4.700;2022-08-21T08:18:18;4.03;;;2.20;;
19705;SDS011;10003;52.506;4.700;2022-08-21T08:20:47;1.10;;;0.93;;
19705;SDS011;10003;52.506;4.700;2022-08-21T08:23:15;2.03;;;0.70;;
19705;SDS011;10003;52.506;4.700;2022-08-21T08:25:46;2.30;;;2.20;;
19705;SDS011;10003;52.506;4.700;2022-08-21T08:28:16;0.70;;;0.70;;
19705;SDS011;10003;52.506;4.700;2022-08-21T08:30:44;1.80;;;1.23;;
19705;SDS011;10003;52.506;4.700;2022-08-21T08:33:14;5.03;;;1.00;;
19705;SDS011;10003;52.506;4.700;2022-08-21T08:35:44;6.13;;;1.80;;
19705;SDS011;10003;52.506;4.700;2022-08-21T08:38:13;2.67;;;1.37;;
19705;SDS011;10003;52.506;4.700;2022-08-21T08:40:47;26.53;;;1.20;;
19705;SDS011;10003;52.506;4.700;2022-08-21T08:43:20;7.40;;;2.43;;
19705;SDS011;10003;52.506;4.700;2022-08-21T08:45:49;1.30;;;0.77;;
19705;SDS011;10003;52.506;4.700;2022-08-21T08:48:24;4.77;;;1.83;;
19705;SDS011;10003;52.506;4.700;2022-08-21T08:50:59;13.00;;;1.80;;
19705;SDS011;10003;52.506;4.700;2022-08-21T08:53:30;6.17;;;1.60;;
19705;SDS011;10003;52.506;4.700;2022-08-21T08:56:00;7.17;;;2.13;;
19705;SDS011;10003;52.506;4.700;2022-08-21T08:58:32;7.73;;;2.43;;
19705;SDS011;10003;52.506;4.700;2022-08-21T09:01:00;2.07;;;1.57;;
19705;SDS011;10003;52.506;4.700;2022-08-21T09:03:29;2.63;;;1.90;;
19705;SDS011;10003;52.506;4.700;2022-08-21T09:06:00;4.17;;;1.37;;
19705;SDS011;10003;52.506;4.700;2022-08-21T09:08:37;4.73;;;1.80;;
19705;SDS011;10003;52.506;4.700;2022-08-21T09:11:13;0.57;;;0.57;;
19705;SDS011;10003;52.506;4.700;2022-08-21T09:13:48;3.23;;;1.93;;
19705;SDS011;10003;52.506;4.700;2022-08-21T09:16:20;5.80;;;2.50;;
19705;SDS011;10003;52.506;4.700;2022-08-21T09:18:54;7.30;;;1.33;;
19705;SDS011;10003;52.506;4.700;2022-08-21T09:21:24;5.77;;;1.50;;
19705;SDS011;10003;52.506;4.700;2022-08-21T09:23:55;2.90;;;1.47;;
19705;SDS011;10003;52.506;4.700;2022-08-21T09:26:26;4.17;;;2.07;;
19705;SDS011;10003;52.506;4.700;2022-08-21T09:28:57;0.73;;;0.73;;
19705;SDS011;10003;52.506;4.700;2022-08-21T09:31:27;2.00;;;1.10;;
19705;SDS011;10003;52.506;4.700;2022-08-21T09:33:59;2.93;;;2.73;;
19705;SDS011;10003;52.506;4.700;2022-08-21T09:36:31;4.80;;;1.50;;
19705;SDS011;10003;52.506;4.700;2022-08-21T09:39:01;0.80;;;0.80;;
19705;SDS011;10003;52.506;4.700;2022-08-21T09:41:32;1.33;;;1.23;;
19705;SDS011;10003;52.506;4.700;2022-08-21T09:44:03;2.53;;;1.10;;
19705;SDS011;10003;52.506;4.700;2022-08-21T09:46:32;2.57;;;1.50;;
19705;SDS011;10003;52.506;4.700;2022-08-21T09:49:02;6.17;;;3.20;;
19705;SDS011;10003;52.506;4.700;2022-08-21T09:51:36;4.10;;;1.97;;
19705;SDS011;10003;52.506;4.700;2022-08-21T09:54:12;1.87;;;1.67;;
19705;SDS011;10003;52.506;4.700;2022-08-21T09:56:51;6.30;;;1.73;;
19705;SDS011;10003;52.506;4.700;2022-08-21T09:59:39;3.73;;;0.80;;
19705;SDS011;10003;52.506;4.700;2022-08-21T10:02:20;7.17;;;1.70;;
19705;SDS011;10003;52.506;4.700;2022-08-21T10:04:49;3.20;;;0.70;;
19705;SDS011;10003;52.506;4.700;2022-08-21T10:07:19;2.43;;;1.23;;
19705;SDS011;10003;52.506;4.700;2022-08-21T10:09:57;2.50;;;1.20;;
19705;SDS011;10003;52.506;4.700;2022-08-21T10:12:27;3.40;;;1.37;;
19705;SDS011;10003;52.506;4.700;2022-08-21T10:15:02;1.43;;;0.67;;
19705;SDS011;10003;52.506;4.700;2022-08-21T10:17:36;1.23;;;1.07;;
19705;SDS011;10003;52.506;4.700;2022-08-21T10:20:06;6.33;;;2.60;;
19705;SDS011;10003;52.506;4.700;2022-08-21T10:22:41;1.70;;;1.17;;
19705;SDS011;10003;52.506;4.700;2022-08-21T10:25:14;1.43;;;1.33;;
19705;SDS011;10003;52.506;4.700;2022-08-21T10:27:49;2.63;;;1.00;;
19705;SDS011;10003;52.506;4.700;2022-08-21T10:30:24;2.80;;;1.00;;
19705;SDS011;10003;52.506;4.700;2022-08-21T10:35:40;0.60;;;0.60;;
19705;SDS011;10003;52.506;4.700;2022-08-21T10:38:24;3.40;;;1.60;;
19705;SDS011;10003;52.506;4.700;2022-08-21T10:41:19;7.47;;;1.20;;
19705;SDS011;10003;52.506;4.700;2022-08-21T10:43:50;6.93;;;1.43;;
19705;SDS011;10003;52.506;4.700;2022-08-21T10:46:33;1.77;;;1.53;;
19705;SDS011;10003;52.506;4.700;2022-08-21T10:49:09;5.00;;;1.17;;
19705;SDS011;10003;52.506;4.700;2022-08-21T10:51:42;2.47;;;1.93;;
19705;SDS011;10003;52.506;4.700;2022-08-21T10:54:17;2.63;;;1.50;;
19705;SDS011;10003;52.506;4.700;2022-08-21T10:56:49;1.17;;;1.17;;
19705;SDS011;10003;52.506;4.700;2022-08-21T10:59:23;5.53;;;1.50;;
19705;SDS011;10003;52.506;4.700;2022-08-21T11:01:56;2.57;;;1.53;;
19705;SDS011;10003;52.506;4.700;2022-08-21T11:04:28;2.97;;;1.27;;
19705;SDS011;10003;52.506;4.700;2022-08-21T11:07:16;3.87;;;1.47;;
19705;SDS011;10003;52.506;4.700;2022-08-21T11:09:46;2.07;;;1.90;;
19705;SDS011;10003;52.506;4.700;2022-08-21T11:12:19;1.50;;;1.03;;
19705;SDS011;10003;52.506;4.700;2022-08-21T11:14:53;9.83;;;1.63;;
19705;SDS011;10003;52.506;4.700;2022-08-21T11:17:27;3.63;;;1.77;;
19705;SDS011;10003;52.506;4.700;2022-08-21T11:19:59;0.87;;;0.63;;
19705;SDS011;10003;52.506;4.700;2022-08-21T11:22:33;1.00;;;1.00;;
19705;SDS011;10003;52.506;4.700;2022-08-21T11:25:03;0.83;;;0.83;;
19705;SDS011;10003;52.506;4.700;2022-08-21T11:27:36;2.97;;;1.30;;
19705;SDS011;10003;52.506;4.700;2022-08-21T11:30:06;0.87;;;0.87;;
19705;SDS011;10003;52.506;4.700;2022-08-21T11:32:40;0.53;;;0.53;;
19705;SDS011;10003;52.506;4.700;2022-08-21T11:35:13;1.50;;;0.87;;
19705;SDS011;10003;52.506;4.700;2022-08-21T11:37:49;1.23;;;1.20;;
19705;SDS011;10003;52.506;4.700;2022-08-21T11:40:35;8.43;;;1.83;;
19705;SDS011;10003;52.506;4.700;2022-08-21T11:43:07;1.23;;;1.13;;
19705;SDS011;10003;52.506;4.700;2022-08-21T11:45:39;2.00;;;1.90;;
19705;SDS011;10003;52.506;4.700;2022-08-21T11:48:14;0.57;;;0.57;;
19705;SDS011;10003;52.506;4.700;2022-08-21T11:50:44;4.33;;;2.20;;
19705;SDS011;10003;52.506;4.700;2022-08-21T11:53:14;1.07;;;0.50;;
19705;SDS011;10003;52.506;4.700;2022-08-21T11:55:44;0.63;;;0.63;;
19705;SDS011;10003;52.506;4.700;2022-08-21T11:58:16;6.03;;;1.60;;
19705;SDS011;10003;52.506;4.700;2022-08-21T12:00:47;1.37;;;1.37;;
19705;SDS011;10003;52.506;4.700;2022-08-21T12:03:26;2.13;;;1.23;;
19705;SDS011;10003;52.506;4.700;2022-08-21T12:05:56;1.70;;;0.80;;
19705;SDS011;10003;52.506;4.700;2022-08-21T12:08:29;3.63;;;1.10;;
19705;SDS011;10003;52.506;4.700;2022-08-21T12:11:02;0.80;;;0.80;;
19705;SDS011;10003;52.506;4.700;2022-08-21T12:13:31;8.77;;;2.47;;
19705;SDS011;10003;52.506;4.700;2022-08-21T12:16:08;2.90;;;0.83;;
19705;SDS011;10003;52.506;4.700;2022-08-21T12:18:38;0.87;;;0.70;;
19705;SDS011;10003;52.506;4.700;2022-08-21T12:21:17;1.07;;;1.00;;
19705;SDS011;10003;52.506;4.700;2022-08-21T12:23:48;4.50;;;1.47;;
19705;SDS011;10003;52.506;4.700;2022-08-21T12:26:18;0.60;;;0.60;;
19705;SDS011;10003;52.506;4.700;2022-08-21T12:28:48;1.93;;;0.87;;
19705;SDS011;10003;52.506;4.700;2022-08-21T12:31:18;0.57;;;0.57;;
19705;SDS011;10003;52.506;4.700;2022-08-21T12:33:51;2.27;;;1.20;;
19705;SDS011;10003;52.506;4.700;2022-08-21T12:36:22;2.43;;;1.30;;
19705;SDS011;10003;52.506;4.700;2022-08-21T12:38:52;6.33;;;0.87;;
19705;SDS011;10003;52.506;4.700;2022-08-21T12:41:24;2.23;;;0.80;;
19705;SDS011;10003;52.506;4.700;2022-08-21T12:43:56;0.43;;;0.43;;
19705;SDS011;10003;52.506;4.700;2022-08-21T12:46:27;0.70;;;0.67;;
19705;SDS011;10003;52.506;4.700;2022-08-21T12:48:58;2.13;;;1.17;;
19705;SDS011;10003;52.506;4.700;2022-08-21T12:51:29;2.80;;;1.43;;
19705;SDS011;10003;52.506;4.700;2022-08-21T12:53:59;0.70;;;0.70;;
19705;SDS011;10003;52.506;4.700;2022-08-21T12:56:29;3.27;;;1.40;;
19705;SDS011;10003;52.506;4.700;2022-08-21T12:59:02;4.77;;;1.20;;
19705;SDS011;10003;52.506;4.700;2022-08-21T13:01:32;3.73;;;1.20;;
19705;SDS011;10003;52.506;4.700;2022-08-21T13:04:09;1.90;;;0.80;;
19705;SDS011;10003;52.506;4.700;2022-08-21T13:06:39;6.33;;;4.37;;
19705;SDS011;10003;52.506;4.700;2022-08-21T13:09:10;0.57;;;0.57;;
19705;SDS011;10003;52.506;4.700;2022-08-21T13:11:39;1.23;;;0.80;;
19705;SDS011;10003;52.506;4.700;2022-08-21T13:14:09;4.03;;;1.10;;
19705;SDS011;10003;52.506;4.700;2022-08-21T13:16:42;0.60;;;0.60;;
19705;SDS011;10003;52.506;4.700;2022-08-21T13:19:16;0.40;;;0.40;;
19705;SDS011;10003;52.506;4.700;2022-08-21T13:21:49;1.53;;;1.43;;
19705;SDS011;10003;52.506;4.700;2022-08-21T13:24:20;2.27;;;1.10;;
19705;SDS011;10003;52.506;4.700;2022-08-21T13:27:19;0.60;;;0.60;;
19705;SDS011;10003;52.506;4.700;2022-08-21T13:29:48;2.57;;;1.33;;
19705;SDS011;10003;52.506;4.700;2022-08-21T13:32:28;1.27;;;1.17;;
19705;SDS011;10003;52.506;4.700;2022-08-21T13:34:59;2.83;;;1.47;;
19705;SDS011;10003;52.506;4.700;2022-08-21T13:37:36;2.77;;;1.37;;
19705;SDS011;10003;52.506;4.700;2022-08-21T13:40:07;2.77;;;0.80;;
19705;SDS011;10003;52.506;4.700;2022-08-21T13:42:38;1.40;;;0.80;;
19705;SDS011;10003;52.506;4.700;2022-08-21T13:45:17;2.10;;;0.93;;
19705;SDS011;10003;52.506;4.700;2022-08-21T13:47:46;1.30;;;0.87;;
19705;SDS011;10003;52.506;4.700;2022-08-21T13:50:16;5.50;;;1.03;;
19705;SDS011;10003;52.506;4.700;2022-08-21T13:52:47;1.60;;;1.37;;
19705;SDS011;10003;52.506;4.700;2022-08-21T13:55:17;1.50;;;1.40;;
19705;SDS011;10003;52.506;4.700;2022-08-21T13:57:46;0.83;;;0.80;;
19705;SDS011;10003;52.506;4.700;2022-08-21T14:00:16;2.57;;;1.80;;
19705;SDS011;10003;52.506;4.700;2022-08-21T14:02:46;1.20;;;1.20;;
19705;SDS011;10003;52.506;4.700;2022-08-21T14:05:19;0.43;;;0.43;;
19705;SDS011;10003;52.506;4.700;2022-08-21T14:07:49;2.10;;;1.13;;
19705;SDS011;10003;52.506;4.700;2022-08-21T14:10:21;0.93;;;0.90;;
19705;SDS011;10003;52.506;4.700;2022-08-21T14:12:55;1.67;;;0.80;;
19705;SDS011;10003;52.506;4.700;2022-08-21T14:15:28;4.63;;;1.53;;
19705;SDS011;10003;52.506;4.700;2022-08-21T14:18:05;2.43;;;1.10;;
19705;SDS011;10003;52.506;4.700;2022-08-21T14:20:36;5.43;;;1.70;;
19705;SDS011;10003;52.506;4.700;2022-08-21T14:23:05;1.03;;;0.90;;
19705;SDS011;10003;52.506;4.700;2022-08-21T14:25:37;1.53;;;1.43;;
19705;SDS011;10003;52.506;4.700;2022-08-21T14:28:12;0.90;;;0.90;;
19705;SDS011;10003;52.506;4.700;2022-08-21T14:30:45;3.60;;;1.03;;
19705;SDS011;10003;52.506;4.700;2022-08-21T14:33:18;1.20;;;0.93;;
19705;SDS011;10003;52.506;4.700;2022-08-21T14:35:50;1.40;;;0.90;;
19705;SDS011;10003;52.506;4.700;2022-08-21T14:38:19;0.90;;;0.87;;
19705;SDS011;10003;52.506;4.700;2022-08-21T14:40:49;5.87;;;2.03;;
19705;SDS011;10003;52.506;4.700;2022-08-21T14:43:18;1.53;;;1.30;;
19705;SDS011;10003;52.506;4.700;2022-08-21T14:45:47;2.97;;;1.33;;
19705;SDS011;10003;52.506;4.700;2022-08-21T14:48:15;3.03;;;1.70;;
19705;SDS011;10003;52.506;4.700;2022-08-21T14:50:44;2.13;;;1.00;;
19705;SDS011;10003;52.506;4.700;2022-08-21T14:53:13;3.40;;;1.20;;
19705;SDS011;10003;52.506;4.700;2022-08-21T14:55:42;6.13;;;0.70;;
19705;SDS011;10003;52.506;4.700;2022-08-21T14:58:28;2.20;;;1.10;;
19705;SDS011;10003;52.506;4.700;2022-08-21T15:00:57;2.27;;;1.07;;
19705;SDS011;10003;52.506;4.700;2022-08-21T15:03:29;0.97;;;0.90;;
19705;SDS011;10003;52.506;4.700;2022-08-21T15:05:58;6.23;;;1.03;;
19705;SDS011;10003;52.506;4.700;2022-08-21T15:08:28;1.30;;;1.07;;